Aérodrome :
LOGIN :

S'inscrire | Disclaimer

   EN    FR    IT 

 










Légende :    VFR   VFR Marginal   IFR   IFR Intensif   IFR Très Intensif
Visi : 
Plafond : 
>= 8 km
>= 3000ft
5 à 8 km
1000 à 3000 ft
1500m à 5 km
500 à 1000 ft
800 à 1500m
200 à 500 ft
< 800m
< 200 ft
Symboles :   Orages  Brouillard  Fortes neiges  Fortes précipitations  Vent > 20 kt
SIGMETs :   Divers  Orages  Givrage  Turbulence  Onde Orograph.  Cendres Volcan.






- Altitude de l'aérodrome : 2945 ft
- Code IATA : RGS


LEBG - Burgos

DERNIER METAR :
  • 230130Z AUTO 06003KT 350V110 3400 -RA BR OVC004 08/07 Q1006

METARs EXPIRÉS :
  • 230100Z AUTO 01004KT 340V050 7000 -RA OVC005 07/07 Q1007
  • 230030Z AUTO 32003KT 290V350 3800 -RA BR BKN004 07/07 Q1007
  • 230000Z AUTO VRB02KT 2800 -RA BR BKN005 BKN009 07/07 Q1008
  • 222330Z AUTO VRB02KT 2800 -RA BR BKN005 BKN010 07/07 Q1008
  • 222300Z AUTO 02006KT 3200 -RA BR SCT005 SCT011 BKN017 07/07 Q1009

TAF TAF LEBG
Valide du 22 à 18h jusqu'au 23 à 03h UTC


221700Z 2218/2303 03012KT 9999 BKN011
TEMPO 2218/2303 2000 RA BR BKN006



MET'MAP, la Météo Aéronautique d'un coup d'oeil ! - Copyright ORBIFLY Décembre 2007 - Disclaimer

ORBIFLY MET'MAP TEAM :

Programmation & Développement : Alexandra Zaïnal
Conception & Développement : Baudouin d'Aumeries
Co-Programmation & Développement : Marc-Olivier Méhu
Soutien technique & logistique : Manuel Goepfert

Contact : metmap@orbifly.com




SOURCES & CREDITS :

   NOAA